sensor_id;sensor_type;location;lat;lon;timestamp;pressure;altitude;pressure_sealevel;temperature;humidity
61676;BME280;47574;52.090;5.244;2022-11-20T00:00:51;101367.0;;;6.82;43.7
61676;BME280;47574;52.090;5.244;2022-11-20T00:04:03;101361.0;;;6.52;44.34
61676;BME280;47574;52.090;5.244;2022-11-20T00:05:39;101365.0;;;6.43;44.56
61676;BME280;47574;52.090;5.244;2022-11-20T00:07:16;101365.0;;;6.62;44.06
61676;BME280;47574;52.090;5.244;2022-11-20T00:10:31;101365.0;;;6.77;43.73
61676;BME280;47574;52.090;5.244;2022-11-20T00:12:08;101365.0;;;6.58;43.99
61676;BME280;47574;52.090;5.244;2022-11-20T00:13:45;101371.0;;;6.74;43.75
61676;BME280;47574;52.090;5.244;2022-11-20T00:16:57;101375.0;;;6.67;44.14
61676;BME280;47574;52.090;5.244;2022-11-20T00:18:34;101373.0;;;6.87;43.4
61676;BME280;47574;52.090;5.244;2022-11-20T00:20:11;101372.0;;;6.59;43.7
61676;BME280;47574;52.090;5.244;2022-11-20T00:21:51;101368.0;;;6.24;44.76
61676;BME280;47574;52.090;5.244;2022-11-20T00:25:04;101365.0;;;6.44;44.48
61676;BME280;47574;52.090;5.244;2022-11-20T00:26:41;101362.0;;;6.59;44.36
61676;BME280;47574;52.090;5.244;2022-11-20T00:28:17;101361.0;;;6.54;44.09
61676;BME280;47574;52.090;5.244;2022-11-20T00:31:30;101359.0;;;6.45;44.24
61676;BME280;47574;52.090;5.244;2022-11-20T00:33:06;101356.0;;;6.24;44.33
61676;BME280;47574;52.090;5.244;2022-11-20T00:34:43;101351.0;;;6.25;44.55
61676;BME280;47574;52.090;5.244;2022-11-20T00:37:58;101347.0;;;6.31;44.43
61676;BME280;47574;52.090;5.244;2022-11-20T00:39:34;101343.0;;;6.5;43.97
61676;BME280;47574;52.090;5.244;2022-11-20T00:41:13;101337.0;;;6.22;44.34
61676;BME280;47574;52.090;5.244;2022-11-20T00:42:49;101339.0;;;6.03;44.97
61676;BME280;47574;52.090;5.244;2022-11-20T00:46:04;101336.0;;;6.22;44.56
61676;BME280;47574;52.090;5.244;2022-11-20T00:47:41;101335.0;;;6.22;44.47
61676;BME280;47574;52.090;5.244;2022-11-20T00:49:18;101330.0;;;6.27;44.32
61676;BME280;47574;52.090;5.244;2022-11-20T00:52:33;101328.0;;;6.1;44.63
61676;BME280;47574;52.090;5.244;2022-11-20T00:54:10;101331.0;;;5.91;44.94
61676;BME280;47574;52.090;5.244;2022-11-20T00:55:53;101337.0;;;5.53;46.12
61676;BME280;47574;52.090;5.244;2022-11-20T00:57:29;101339.0;;;5.16;46.81
61676;BME280;47574;52.090;5.244;2022-11-20T01:00:41;101335.0;;;5.26;47.81
61676;BME280;47574;52.090;5.244;2022-11-20T01:02:18;101332.0;;;5.34;46.71
61676;BME280;47574;52.090;5.244;2022-11-20T01:03:57;101335.0;;;5.21;46.83
61676;BME280;47574;52.090;5.244;2022-11-20T01:07:10;101341.0;;;5.24;46.62
61676;BME280;47574;52.090;5.244;2022-11-20T01:08:47;101347.0;;;5.33;46.38
61676;BME280;47574;52.090;5.244;2022-11-20T01:10:25;101345.0;;;5.73;45.41
61676;BME280;47574;52.090;5.244;2022-11-20T01:12:01;101346.0;;;5.69;45.18
61676;BME280;47574;52.090;5.244;2022-11-20T01:15:13;101345.0;;;5.48;46.07
61676;BME280;47574;52.090;5.244;2022-11-20T01:16:50;101342.0;;;5.64;45.87
61676;BME280;47574;52.090;5.244;2022-11-20T01:18:28;101341.0;;;5.92;45.37
61676;BME280;47574;52.090;5.244;2022-11-20T01:21:44;101343.0;;;5.79;45.05
61676;BME280;47574;52.090;5.244;2022-11-20T01:23:20;101340.0;;;5.83;45.09
61676;BME280;47574;52.090;5.244;2022-11-20T01:24:57;101335.0;;;5.81;44.91
61676;BME280;47574;52.090;5.244;2022-11-20T01:26:34;101334.0;;;5.4;45.53
61676;BME280;47574;52.090;5.244;2022-11-20T01:29:48;101330.0;;;5.52;45.62
61676;BME280;47574;52.090;5.244;2022-11-20T01:31:26;101330.0;;;5.7;45.0
61676;BME280;47574;52.090;5.244;2022-11-20T01:33:03;101330.0;;;5.65;45.14
61676;BME280;47574;52.090;5.244;2022-11-20T01:36:18;101327.0;;;5.34;45.48
61676;BME280;47574;52.090;5.244;2022-11-20T01:37:55;101330.0;;;5.11;46.37
61676;BME280;47574;52.090;5.244;2022-11-20T01:39:31;101321.0;;;5.18;46.2
61676;BME280;47574;52.090;5.244;2022-11-20T01:43:50;101321.0;;;5.33;45.65
61676;BME280;47574;52.090;5.244;2022-11-20T01:45:58;101327.0;;;5.46;45.61
61676;BME280;47574;52.090;5.244;2022-11-20T01:47:37;101325.0;;;5.72;45.71
61676;BME280;47574;52.090;5.244;2022-11-20T01:51:00;101326.0;;;6.48;43.72
61676;BME280;47574;52.090;5.244;2022-11-20T01:52:41;101330.0;;;6.37;43.77
61676;BME280;47574;52.090;5.244;2022-11-20T01:54:22;101330.0;;;6.32;43.55
61676;BME280;47574;52.090;5.244;2022-11-20T01:56:03;101330.0;;;6.48;43.37
61676;BME280;47574;52.090;5.244;2022-11-20T01:59:23;101326.0;;;6.38;43.28
61676;BME280;47574;52.090;5.244;2022-11-20T02:01:03;101326.0;;;5.63;45.21
61676;BME280;47574;52.090;5.244;2022-11-20T02:02:42;101326.0;;;5.59;45.59
61676;BME280;47574;52.090;5.244;2022-11-20T02:04:22;101330.0;;;5.53;45.37
61676;BME280;47574;52.090;5.244;2022-11-20T02:07:43;101326.0;;;5.36;45.77
61676;BME280;47574;52.090;5.244;2022-11-20T02:09:20;101323.0;;;5.18;46.34
61676;BME280;47574;52.090;5.244;2022-11-20T02:10:56;101319.0;;;4.95;46.67
61676;BME280;47574;52.090;5.244;2022-11-20T02:16:09;101315.0;;;5.25;46.04
61676;BME280;47574;52.090;5.244;2022-11-20T02:17:47;101314.0;;;5.26;45.87
61676;BME280;47574;52.090;5.244;2022-11-20T02:19:26;101310.0;;;5.46;45.05
61676;BME280;47574;52.090;5.244;2022-11-20T02:21:07;101310.0;;;5.55;44.86
61676;BME280;47574;52.090;5.244;2022-11-20T02:24:33;101303.0;;;5.29;45.45
61676;BME280;47574;52.090;5.244;2022-11-20T02:26:12;101297.0;;;5.17;45.62
61676;BME280;47574;52.090;5.244;2022-11-20T02:27:51;101296.0;;;5.01;46.0
61676;BME280;47574;52.090;5.244;2022-11-20T02:29:32;101296.0;;;5.09;46.12
61676;BME280;47574;52.090;5.244;2022-11-20T02:32:46;101295.0;;;5.25;45.9
61676;BME280;47574;52.090;5.244;2022-11-20T02:34:22;101298.0;;;5.4;45.52
61676;BME280;47574;52.090;5.244;2022-11-20T02:35:58;101300.0;;;5.18;45.91
61676;BME280;47574;52.090;5.244;2022-11-20T02:39:16;101302.0;;;5.05;46.01
61676;BME280;47574;52.090;5.244;2022-11-20T02:40:53;101298.0;;;4.99;45.99
61676;BME280;47574;52.090;5.244;2022-11-20T02:42:29;101303.0;;;5.05;46.13
61676;BME280;47574;52.090;5.244;2022-11-20T02:44:05;101305.0;;;5.03;46.06
61676;BME280;47574;52.090;5.244;2022-11-20T02:47:18;101298.0;;;4.82;46.74
61676;BME280;47574;52.090;5.244;2022-11-20T02:48:54;101305.0;;;5.07;46.31
61676;BME280;47574;52.090;5.244;2022-11-20T02:50:30;101308.0;;;5.53;45.74
61676;BME280;47574;52.090;5.244;2022-11-20T02:53:42;101299.0;;;5.77;45.41
61676;BME280;47574;52.090;5.244;2022-11-20T02:55:19;101297.0;;;5.82;45.25
61676;BME280;47574;52.090;5.244;2022-11-20T02:56:55;101293.0;;;5.67;45.42
61676;BME280;47574;52.090;5.244;2022-11-20T03:00:08;101297.0;;;5.69;45.31
61676;BME280;47574;52.090;5.244;2022-11-20T03:01:44;101297.0;;;5.4;45.38
61676;BME280;47574;52.090;5.244;2022-11-20T03:03:20;101290.0;;;5.3;45.59
61676;BME280;47574;52.090;5.244;2022-11-20T03:04:57;101287.0;;;5.51;45.08
61676;BME280;47574;52.090;5.244;2022-11-20T03:08:10;101285.0;;;5.6;45.36
61676;BME280;47574;52.090;5.244;2022-11-20T03:09:46;101284.0;;;5.25;45.64
61676;BME280;47574;52.090;5.244;2022-11-20T03:11:23;101287.0;;;5.68;45.45
61676;BME280;47574;52.090;5.244;2022-11-20T03:14:36;101287.0;;;5.28;45.94
61676;BME280;47574;52.090;5.244;2022-11-20T03:16:14;101282.0;;;5.74;44.87
61676;BME280;47574;52.090;5.244;2022-11-20T03:17:53;101280.0;;;5.18;45.77
61676;BME280;47574;52.090;5.244;2022-11-20T03:21:06;101275.0;;;5.12;45.91
61676;BME280;47574;52.090;5.244;2022-11-20T03:22:43;101273.0;;;5.05;46.3
61676;BME280;47574;52.090;5.244;2022-11-20T03:24:19;101270.0;;;5.03;46.43
61676;BME280;47574;52.090;5.244;2022-11-20T03:25:55;101273.0;;;4.95;46.41
61676;BME280;47574;52.090;5.244;2022-11-20T03:29:09;101274.0;;;5.05;46.1
61676;BME280;47574;52.090;5.244;2022-11-20T03:30:45;101277.0;;;5.05;45.77
61676;BME280;47574;52.090;5.244;2022-11-20T03:35:34;101272.0;;;4.95;46.26
61676;BME280;47574;52.090;5.244;2022-11-20T03:37:11;101272.0;;;5.19;46.16
61676;BME280;47574;52.090;5.244;2022-11-20T03:38:47;101271.0;;;5.23;45.71
61676;BME280;47574;52.090;5.244;2022-11-20T03:42:00;101274.0;;;5.05;46.14
61676;BME280;47574;52.090;5.244;2022-11-20T03:43:37;101272.0;;;4.96;46.28
61676;BME280;47574;52.090;5.244;2022-11-20T03:46:52;101265.0;;;5.05;46.06
61676;BME280;47574;52.090;5.244;2022-11-20T03:50:06;101263.0;;;5.16;46.1
61676;BME280;47574;52.090;5.244;2022-11-20T03:51:43;101258.0;;;5.07;46.09
61676;BME280;47574;52.090;5.244;2022-11-20T03:53:20;101255.0;;;4.84;46.4
61676;BME280;47574;52.090;5.244;2022-11-20T03:56:34;101253.0;;;4.89;45.78
61676;BME280;47574;52.090;5.244;2022-11-20T03:58:11;101255.0;;;4.63;46.12
61676;BME280;47574;52.090;5.244;2022-11-20T03:59:47;101252.0;;;4.49;46.54
61676;BME280;47574;52.090;5.244;2022-11-20T04:01:25;101247.0;;;4.55;46.25
61676;BME280;47574;52.090;5.244;2022-11-20T04:04:39;101244.0;;;4.8;45.67
61676;BME280;47574;52.090;5.244;2022-11-20T04:06:17;101248.0;;;4.62;46.08
61676;BME280;47574;52.090;5.244;2022-11-20T04:07:54;101243.0;;;4.54;46.15
61676;BME280;47574;52.090;5.244;2022-11-20T04:11:09;101244.0;;;4.36;46.39
61676;BME280;47574;52.090;5.244;2022-11-20T04:12:46;101244.0;;;4.36;46.61
61676;BME280;47574;52.090;5.244;2022-11-20T04:14:22;101241.0;;;4.37;46.31
61676;BME280;47574;52.090;5.244;2022-11-20T04:17:35;101233.0;;;4.34;46.65
61676;BME280;47574;52.090;5.244;2022-11-20T04:19:14;101233.0;;;4.3;46.22
61676;BME280;47574;52.090;5.244;2022-11-20T04:20:51;101231.0;;;4.38;46.31
61676;BME280;47574;52.090;5.244;2022-11-20T04:22:27;101228.0;;;4.3;46.34
61676;BME280;47574;52.090;5.244;2022-11-20T04:25:42;101230.0;;;4.36;46.39
61676;BME280;47574;52.090;5.244;2022-11-20T04:27:19;101233.0;;;4.41;46.36
61676;BME280;47574;52.090;5.244;2022-11-20T04:28:55;101226.0;;;4.63;46.13
61676;BME280;47574;52.090;5.244;2022-11-20T04:32:08;101230.0;;;5.09;45.9
61676;BME280;47574;52.090;5.244;2022-11-20T04:33:45;101228.0;;;4.54;46.2
61676;BME280;47574;52.090;5.244;2022-11-20T04:35:22;101224.0;;;4.43;46.45
61676;BME280;47574;52.090;5.244;2022-11-20T04:36:57;101217.0;;;4.66;45.25
61676;BME280;47574;52.090;5.244;2022-11-20T04:40:10;101222.0;;;4.45;45.38
61676;BME280;47574;52.090;5.244;2022-11-20T04:41:46;101221.0;;;3.94;46.32
61676;BME280;47574;52.090;5.244;2022-11-20T04:43:23;101225.0;;;4.17;45.72
61676;BME280;47574;52.090;5.244;2022-11-20T04:46:38;101224.0;;;3.78;46.61
61676;BME280;47574;52.090;5.244;2022-11-20T04:48:14;101227.0;;;3.97;46.43
61676;BME280;47574;52.090;5.244;2022-11-20T04:49:51;101224.0;;;3.98;46.49
61676;BME280;47574;52.090;5.244;2022-11-20T04:53:03;101224.0;;;3.97;46.68
61676;BME280;47574;52.090;5.244;2022-11-20T04:54:39;101223.0;;;4.04;46.43
61676;BME280;47574;52.090;5.244;2022-11-20T04:56:16;101217.0;;;4.03;46.62
61676;BME280;47574;52.090;5.244;2022-11-20T04:57:53;101209.0;;;3.89;46.9
61676;BME280;47574;52.090;5.244;2022-11-20T05:01:06;101206.0;;;3.99;46.51
61676;BME280;47574;52.090;5.244;2022-11-20T05:02:43;101207.0;;;4.0;46.39
61676;BME280;47574;52.090;5.244;2022-11-20T05:04:19;101201.0;;;3.78;46.69
61676;BME280;47574;52.090;5.244;2022-11-20T05:07:32;101196.0;;;3.97;46.35
61676;BME280;47574;52.090;5.244;2022-11-20T05:09:08;101199.0;;;3.93;46.02
61676;BME280;47574;52.090;5.244;2022-11-20T05:10:44;101199.0;;;4.22;45.5
61676;BME280;47574;52.090;5.244;2022-11-20T05:13:58;101195.0;;;4.17;45.15
61676;BME280;47574;52.090;5.244;2022-11-20T05:15:35;101195.0;;;4.03;45.45
61676;BME280;47574;52.090;5.244;2022-11-20T05:17:11;101192.0;;;4.03;45.36
61676;BME280;47574;52.090;5.244;2022-11-20T05:18:48;101192.0;;;4.13;45.14
61676;BME280;47574;52.090;5.244;2022-11-20T05:22:04;101190.0;;;3.66;45.87
61676;BME280;47574;52.090;5.244;2022-11-20T05:23:41;101190.0;;;3.63;46.42
61676;BME280;47574;52.090;5.244;2022-11-20T05:25:19;101187.0;;;3.67;46.48
61676;BME280;47574;52.090;5.244;2022-11-20T05:28:32;101178.0;;;3.46;47.12
61676;BME280;47574;52.090;5.244;2022-11-20T05:30:09;101181.0;;;3.61;46.79
61676;BME280;47574;52.090;5.244;2022-11-20T05:31:48;101180.0;;;3.7;46.94
61676;BME280;47574;52.090;5.244;2022-11-20T05:33:24;101181.0;;;3.94;46.25
61676;BME280;47574;52.090;5.244;2022-11-20T05:36:36;101183.0;;;3.58;46.6
61676;BME280;47574;52.090;5.244;2022-11-20T05:38:12;101185.0;;;3.94;46.16
61676;BME280;47574;52.090;5.244;2022-11-20T05:39:48;101180.0;;;3.93;46.13
61676;BME280;47574;52.090;5.244;2022-11-20T05:43:01;101184.0;;;3.66;46.6
61676;BME280;47574;52.090;5.244;2022-11-20T05:44:38;101187.0;;;4.17;45.93
61676;BME280;47574;52.090;5.244;2022-11-20T05:46:17;101186.0;;;4.0;46.14
61676;BME280;47574;52.090;5.244;2022-11-20T05:49:35;101186.0;;;3.61;46.96
61676;BME280;47574;52.090;5.244;2022-11-20T05:51:13;101187.0;;;3.87;46.58
61676;BME280;47574;52.090;5.244;2022-11-20T05:52:51;101190.0;;;4.12;45.8
61676;BME280;47574;52.090;5.244;2022-11-20T05:54:27;101190.0;;;3.95;46.36
61676;BME280;47574;52.090;5.244;2022-11-20T05:57:45;101196.0;;;4.07;46.19
61676;BME280;47574;52.090;5.244;2022-11-20T05:59:21;101209.0;;;4.12;46.32
61676;BME280;47574;52.090;5.244;2022-11-20T06:01:04;101209.0;;;4.63;45.66
61676;BME280;47574;52.090;5.244;2022-11-20T06:02:41;101217.0;;;4.58;45.84
61676;BME280;47574;52.090;5.244;2022-11-20T06:05:53;101218.0;;;4.8;45.44
61676;BME280;47574;52.090;5.244;2022-11-20T06:07:30;101219.0;;;4.54;45.17
61676;BME280;47574;52.090;5.244;2022-11-20T06:09:06;101217.0;;;4.46;45.32
61676;BME280;47574;52.090;5.244;2022-11-20T06:12:18;101216.0;;;3.98;46.8
61676;BME280;47574;52.090;5.244;2022-11-20T06:13:55;101215.0;;;4.2;46.26
61676;BME280;47574;52.090;5.244;2022-11-20T06:15:30;101215.0;;;4.25;46.33
61676;BME280;47574;52.090;5.244;2022-11-20T06:18:44;101217.0;;;4.29;45.95
61676;BME280;47574;52.090;5.244;2022-11-20T06:20:20;101210.0;;;4.38;45.46
61676;BME280;47574;52.090;5.244;2022-11-20T06:21:57;101208.0;;;3.98;46.03
61676;BME280;47574;52.090;5.244;2022-11-20T06:25:12;101211.0;;;3.91;45.76
61676;BME280;47574;52.090;5.244;2022-11-20T06:26:49;101207.0;;;3.8;46.27
61676;BME280;47574;52.090;5.244;2022-11-20T06:28:25;101205.0;;;3.7;46.5
61676;BME280;47574;52.090;5.244;2022-11-20T06:30:02;101205.0;;;3.75;46.41
61676;BME280;47574;52.090;5.244;2022-11-20T06:33:15;101205.0;;;3.78;46.72
61676;BME280;47574;52.090;5.244;2022-11-20T06:34:51;101206.0;;;3.68;46.78
61676;BME280;47574;52.090;5.244;2022-11-20T06:36:27;101203.0;;;3.79;46.65
61676;BME280;47574;52.090;5.244;2022-11-20T06:39:42;101207.0;;;3.88;46.78
61676;BME280;47574;52.090;5.244;2022-11-20T06:41:20;101207.0;;;3.81;46.57
61676;BME280;47574;52.090;5.244;2022-11-20T06:42:57;101208.0;;;3.91;46.35
61676;BME280;47574;52.090;5.244;2022-11-20T06:44:33;101208.0;;;3.82;46.76
61676;BME280;47574;52.090;5.244;2022-11-20T06:47:48;101212.0;;;4.04;45.88
61676;BME280;47574;52.090;5.244;2022-11-20T06:49:25;101211.0;;;4.01;45.62
61676;BME280;47574;52.090;5.244;2022-11-20T06:51:02;101206.0;;;3.95;45.86
61676;BME280;47574;52.090;5.244;2022-11-20T06:54:16;101206.0;;;3.6;46.58
61676;BME280;47574;52.090;5.244;2022-11-20T06:55:52;101200.0;;;3.62;46.46
61676;BME280;47574;52.090;5.244;2022-11-20T06:57:32;101193.0;;;3.59;46.63
61676;BME280;47574;52.090;5.244;2022-11-20T07:00:44;101191.0;;;3.73;45.94
61676;BME280;47574;52.090;5.244;2022-11-20T07:02:21;101192.0;;;3.69;46.19
61676;BME280;47574;52.090;5.244;2022-11-20T07:03:57;101188.0;;;3.38;46.96
61676;BME280;47574;52.090;5.244;2022-11-20T07:05:34;101184.0;;;3.77;46.61
61676;BME280;47574;52.090;5.244;2022-11-20T07:08:47;101181.0;;;3.55;46.9
61676;BME280;47574;52.090;5.244;2022-11-20T07:10:23;101183.0;;;4.01;46.12
61676;BME280;47574;52.090;5.244;2022-11-20T07:12:00;101182.0;;;3.7;46.11
61676;BME280;47574;52.090;5.244;2022-11-20T07:15:12;101184.0;;;3.73;46.59
61676;BME280;47574;52.090;5.244;2022-11-20T07:16:49;101182.0;;;3.64;46.86
61676;BME280;47574;52.090;5.244;2022-11-20T07:18:26;101184.0;;;3.87;46.51
61676;BME280;47574;52.090;5.244;2022-11-20T07:21:38;101177.0;;;3.69;46.64
61676;BME280;47574;52.090;5.244;2022-11-20T07:23:14;101173.0;;;3.67;47.03
61676;BME280;47574;52.090;5.244;2022-11-20T07:24:50;101170.0;;;3.79;47.13
61676;BME280;47574;52.090;5.244;2022-11-20T07:26:26;101173.0;;;3.68;47.16
61676;BME280;47574;52.090;5.244;2022-11-20T07:29:40;101170.0;;;3.77;47.15
61676;BME280;47574;52.090;5.244;2022-11-20T07:31:16;101170.0;;;3.5;47.97
61676;BME280;47574;52.090;5.244;2022-11-20T07:32:52;101173.0;;;3.81;47.91
61676;BME280;47574;52.090;5.244;2022-11-20T07:36:07;101173.0;;;3.94;47.57
61676;BME280;47574;52.090;5.244;2022-11-20T07:37:46;101172.0;;;3.95;47.8
61676;BME280;47574;52.090;5.244;2022-11-20T07:39:22;101173.0;;;3.98;47.75
61676;BME280;47574;52.090;5.244;2022-11-20T07:42:38;101177.0;;;3.97;48.18
61676;BME280;47574;52.090;5.244;2022-11-20T07:44:14;101184.0;;;4.2;47.94
61676;BME280;47574;52.090;5.244;2022-11-20T07:45:50;101176.0;;;4.62;47.45
61676;BME280;47574;52.090;5.244;2022-11-20T07:47:28;101180.0;;;4.75;47.25
61676;BME280;47574;52.090;5.244;2022-11-20T07:50:41;101180.0;;;4.87;47.0
61676;BME280;47574;52.090;5.244;2022-11-20T07:52:17;101182.0;;;4.95;47.09
61676;BME280;47574;52.090;5.244;2022-11-20T07:53:53;101184.0;;;4.58;47.71
61676;BME280;47574;52.090;5.244;2022-11-20T07:57:07;101178.0;;;4.63;47.82
61676;BME280;47574;52.090;5.244;2022-11-20T07:58:43;101178.0;;;4.82;47.6
61676;BME280;47574;52.090;5.244;2022-11-20T08:00:19;101176.0;;;4.68;47.79
61676;BME280;47574;52.090;5.244;2022-11-20T08:03:32;101178.0;;;4.78;47.8
61676;BME280;47574;52.090;5.244;2022-11-20T08:05:09;101173.0;;;4.87;47.87
61676;BME280;47574;52.090;5.244;2022-11-20T08:06:46;101164.0;;;4.95;47.55
61676;BME280;47574;52.090;5.244;2022-11-20T08:08:23;101156.0;;;4.99;47.88
61676;BME280;47574;52.090;5.244;2022-11-20T08:15:48;101152.0;;;4.84;48.18
61676;BME280;47574;52.090;5.244;2022-11-20T08:17:25;101158.0;;;5.23;47.93
61676;BME280;47574;52.090;5.244;2022-11-20T08:19:01;101164.0;;;5.42;47.56
61676;BME280;47574;52.090;5.244;2022-11-20T08:22:16;101160.0;;;5.38;47.71
61676;BME280;47574;52.090;5.244;2022-11-20T08:23:51;101160.0;;;5.63;47.38
61676;BME280;47574;52.090;5.244;2022-11-20T08:25:29;101157.0;;;5.61;47.24
61676;BME280;47574;52.090;5.244;2022-11-20T08:27:06;101155.0;;;5.82;47.0
61676;BME280;47574;52.090;5.244;2022-11-20T08:30:18;101158.0;;;5.95;46.8
61676;BME280;47574;52.090;5.244;2022-11-20T08:31:55;101160.0;;;5.88;47.1
61676;BME280;47574;52.090;5.244;2022-11-20T08:33:32;101162.0;;;6.05;47.06
61676;BME280;47574;52.090;5.244;2022-11-20T08:36:45;101160.0;;;6.17;46.38
61676;BME280;47574;52.090;5.244;2022-11-20T08:38:21;101165.0;;;6.21;46.63
61676;BME280;47574;52.090;5.244;2022-11-20T08:39:57;101171.0;;;6.36;46.67
61676;BME280;47574;52.090;5.244;2022-11-20T08:43:10;101170.0;;;6.26;47.15
61676;BME280;47574;52.090;5.244;2022-11-20T08:44:46;101167.0;;;6.42;46.66
61676;BME280;47574;52.090;5.244;2022-11-20T08:46:23;101165.0;;;6.6;46.51
61676;BME280;47574;52.090;5.244;2022-11-20T08:48:01;101165.0;;;6.47;46.83
61676;BME280;47574;52.090;5.244;2022-11-20T08:51:14;101163.0;;;6.61;46.84
61676;BME280;47574;52.090;5.244;2022-11-20T08:52:51;101167.0;;;6.58;46.9
61676;BME280;47574;52.090;5.244;2022-11-20T08:54:27;101167.0;;;6.48;46.94
61676;BME280;47574;52.090;5.244;2022-11-20T08:57:40;101165.0;;;6.39;47.46
61676;BME280;47574;52.090;5.244;2022-11-20T08:59:17;101162.0;;;6.68;47.17
61676;BME280;47574;52.090;5.244;2022-11-20T09:00:53;101160.0;;;6.73;47.15
61676;BME280;47574;52.090;5.244;2022-11-20T09:04:06;101165.0;;;6.64;47.06
61676;BME280;47574;52.090;5.244;2022-11-20T09:05:43;101158.0;;;6.6;47.31
61676;BME280;47574;52.090;5.244;2022-11-20T09:07:19;101150.0;;;6.66;46.96
61676;BME280;47574;52.090;5.244;2022-11-20T09:08:55;101155.0;;;6.5;47.7
61676;BME280;47574;52.090;5.244;2022-11-20T09:12:08;101149.0;;;6.72;47.47
61676;BME280;47574;52.090;5.244;2022-11-20T09:13:44;101147.0;;;6.75;47.09
61676;BME280;47574;52.090;5.244;2022-11-20T09:15:21;101140.0;;;6.64;47.22
61676;BME280;47574;52.090;5.244;2022-11-20T09:18:36;101143.0;;;6.38;48.13
61676;BME280;47574;52.090;5.244;2022-11-20T09:20:14;101140.0;;;6.5;48.26
61676;BME280;47574;52.090;5.244;2022-11-20T09:21:50;101130.0;;;6.69;47.54
61676;BME280;47574;52.090;5.244;2022-11-20T09:25:08;101134.0;;;6.6;48.32
61676;BME280;47574;52.090;5.244;2022-11-20T09:26:44;101126.0;;;6.67;47.88
61676;BME280;47574;52.090;5.244;2022-11-20T09:28:21;101118.0;;;6.77;47.82
61676;BME280;47574;52.090;5.244;2022-11-20T09:29:57;101117.0;;;6.92;47.83
61676;BME280;47574;52.090;5.244;2022-11-20T09:33:09;101111.0;;;6.94;47.64
61676;BME280;47574;52.090;5.244;2022-11-20T09:34:45;101107.0;;;6.9;48.01
61676;BME280;47574;52.090;5.244;2022-11-20T09:36:22;101110.0;;;7.25;47.56
61676;BME280;47574;52.090;5.244;2022-11-20T09:39:34;101110.0;;;6.88;48.0
61676;BME280;47574;52.090;5.244;2022-11-20T09:41:32;101101.0;;;6.78;48.53
61676;BME280;47574;52.090;5.244;2022-11-20T09:43:28;101099.0;;;7.15;47.86
